Terminal Aerodrome Forecast
Issued by NWS New Orleans/Baton Rouge, LA

Home | Current Version | Previous Version | Text Only | Print | Product List | Glossary On
Versions: 1 2 3 4 5 6 7 8 9 10 11 12
632
FTUS44 KLIX 231127
TAFBTR
TAF
KBTR 231127Z 2312/2412 00000KT P6SM SKC
     FM231500 26004KT P6SM SCT035
     FM231800 29005KT P6SM VCTS SCT035CB
     FM240300 13003KT P6SM BKN250=

USA.gov is the U.S. government's official web portal to all federal, state and local government web resources and services.